Elgin, United Kingdom
Current Conditions -  °F | °C
As of 8:50 PM on Thursday 18 Dec 2014 (Local Time) from EGQS Reporting Station
Rain Showers Rain Showers  
Wind Chill: 29°   Ceiling: 5000
Heat Index: 39°   Visibility: 6mi
Dew Point: 36°   Wind: 21mph
Humidity: 87%   Direction: 260°W
Pressure: 29.29"   Gusts: NA
Location:  57.65°N, 3.33°W
Report Text: EGQS 182050Z 26018KT 9999 -SHRA FEW012 BKN050 04/02 Q0992 BLU
Loading
Personal Weather Stations






























Interactive Weather Map New forecast layout! Learn more

10-Day Weather Forecast

Advertisements
Track Severe Weather on mobile